Time;durP1;ratioP1;P1;durP2;ratioP2;P2;SDS_P1;SDS_P2;PMS_P1;PMS_P2;Temp;Humidity;BMP_temperature;BMP_pressure;BME280_temperature;BME280_humidity;BME280_pressure;Samples;Min_cycle;Max_cycle;Signal;HPM_P1;HPM_P2
2022/09/17 00:00:22;;;;;;;9.50;0.88;;;10.80;99.90;;;;;;5101824;28;20378;-37
2022/09/17 00:02:54;;;;;;;10.85;1.35;;;10.80;99.90;;;;;;5097985;28;20087;-38
2022/09/17 00:05:22;;;;;;;4.78;1.42;;;10.80;99.90;;;;;;5101501;28;20161;-36
2022/09/17 00:07:49;;;;;;;12.30;1.02;;;10.80;99.90;;;;;;5098562;28;20559;-37
2022/09/17 00:10:15;;;;;;;9.13;0.88;;;10.80;99.90;;;;;;5104880;28;20481;-38
2022/09/17 00:12:41;;;;;;;13.55;1.17;;;10.90;99.90;;;;;;5100644;28;20035;-37
2022/09/17 00:15:07;;;;;;;8.38;0.90;;;11.00;99.90;;;;;;5107312;28;20047;-38
2022/09/17 00:17:33;;;;;;;10.38;1.65;;;11.00;99.90;;;;;;5105698;28;20040;-38
2022/09/17 00:19:58;;;;;;;10.80;0.95;;;11.10;99.90;;;;;;5103273;28;20035;-37
2022/09/17 00:22:24;;;;;;;5.68;0.80;;;11.00;99.90;;;;;;5105962;28;20044;-38
2022/09/17 00:24:50;;;;;;;7.38;1.33;;;11.00;99.90;;;;;;5108310;28;20043;-37
2022/09/17 00:27:15;;;;;;;10.35;1.10;;;11.00;99.90;;;;;;5104760;28;20031;-37
2022/09/17 00:29:41;;;;;;;9.05;1.40;;;11.00;99.90;;;;;;5100578;28;20435;-37
2022/09/17 00:32:07;;;;;;;9.57;0.95;;;11.10;99.90;;;;;;5104545;28;20221;-37
2022/09/17 00:34:33;;;;;;;8.60;1.00;;;11.10;99.90;;;;;;5094238;28;20040;-37
2022/09/17 00:36:58;;;;;;;7.10;0.98;;;11.10;99.90;;;;;;5099701;28;20036;-37
2022/09/17 00:39:24;;;;;;;7.75;0.60;;;11.10;99.90;;;;;;5093670;28;20040;-37
2022/09/17 00:41:49;;;;;;;7.55;0.70;;;11.00;99.90;;;;;;5104390;28;20109;-37
2022/09/17 00:44:47;;;;;;;11.07;1.20;;;11.00;99.90;;;;;;5101335;28;20477;-36
2022/09/17 00:47:24;;;;;;;5.28;0.80;;;10.90;99.90;;;;;;5086701;28;20052;-38
2022/09/17 00:49:59;;;;;;;4.00;0.70;;;10.80;99.90;;;;;;5092430;28;20169;-36
2022/09/17 00:52:31;;;;;;;6.53;0.68;;;10.70;99.90;;;;;;5104845;28;20111;-36
2022/09/17 00:55:08;;;;;;;5.78;1.30;;;10.70;99.90;;;;;;5102598;28;20488;-37
2022/09/17 00:57:35;;;;;;;7.65;0.55;;;10.60;99.90;;;;;;5108412;28;20496;-39
2022/09/17 01:00:01;;;;;;;4.72;0.63;;;10.50;99.90;;;;;;5077836;28;20048;-37
2022/09/17 01:02:27;;;;;;;5.43;0.70;;;10.50;99.90;;;;;;5100703;28;20062;-37
2022/09/17 01:04:53;;;;;;;6.63;1.23;;;10.50;99.90;;;;;;5101748;28;20031;-38
2022/09/17 01:07:45;;;;;;;3.92;0.43;;;10.40;99.90;;;;;;5100159;28;20071;-37
2022/09/17 01:10:23;;;;;;;8.80;0.68;;;10.40;99.90;;;;;;5089035;28;20126;-36
2022/09/17 01:13:24;;;;;;;6.30;0.88;;;10.30;99.90;;;;;;5092733;28;20044;-37
2022/09/17 01:16:28;;;;;;;5.75;1.05;;;10.30;99.90;;;;;;5096762;28;20036;-37
2022/09/17 01:19:43;;;;;;;7.20;0.68;;;10.30;99.90;;;;;;5097477;28;20122;-36
2022/09/17 01:22:39;;;;;;;6.28;0.80;;;10.30;99.90;;;;;;5077549;28;20135;-37
2022/09/17 01:25:23;;;;;;;10.13;1.00;;;10.40;99.90;;;;;;5096151;28;20044;-37
2022/09/17 01:28:07;;;;;;;13.80;1.10;;;10.40;99.90;;;;;;5097377;28;20040;-36
2022/09/17 01:30:38;;;;;;;9.20;1.08;;;10.40;99.90;;;;;;5095829;28;20027;-37
2022/09/17 01:33:17;;;;;;;8.10;0.93;;;10.40;99.90;;;;;;5097793;28;20046;-37
2022/09/17 01:36:00;;;;;;;9.60;0.73;;;10.40;99.90;;;;;;5099107;28;20035;-37
2022/09/17 01:38:32;;;;;;;8.00;0.75;;;10.40;99.90;;;;;;5103142;28;20489;-37
2022/09/17 01:41:06;;;;;;;7.63;0.70;;;10.40;99.90;;;;;;5095891;28;20035;-38
2022/09/17 01:43:39;;;;;;;5.55;0.93;;;10.40;99.90;;;;;;5103741;28;20031;-38
2022/09/17 01:46:26;;;;;;;10.15;1.25;;;10.40;99.90;;;;;;5095801;28;20035;-36
2022/09/17 01:48:58;;;;;;;6.63;0.75;;;10.40;99.90;;;;;;5105039;28;20484;-36
2022/09/17 01:51:26;;;;;;;7.43;0.77;;;10.50;99.90;;;;;;5095938;28;20439;-37
2022/09/17 01:53:52;;;;;;;8.55;1.77;;;10.60;99.90;;;;;;5099823;28;20047;-37
2022/09/17 01:56:26;;;;;;;10.32;0.77;;;10.60;99.90;;;;;;5101013;28;20032;-36
2022/09/17 01:59:00;;;;;;;4.45;0.50;;;10.70;99.90;;;;;;5105431;28;20058;-35
2022/09/17 02:01:29;;;;;;;7.50;0.90;;;10.70;99.90;;;;;;5096871;28;20412;-35
2022/09/17 02:04:03;;;;;;;8.10;0.77;;;10.70;99.90;;;;;;5098340;28;20036;-35
2022/09/17 02:06:34;;;;;;;6.40;0.50;;;10.70;99.90;;;;;;5096368;28;20048;-38
2022/09/17 02:09:06;;;;;;;4.78;0.60;;;10.70;99.90;;;;;;5098674;28;20081;-37
2022/09/17 02:11:35;;;;;;;8.57;1.08;;;10.70;99.90;;;;;;5097222;28;20036;-37
2022/09/17 02:14:16;;;;;;;7.05;0.60;;;10.70;99.90;;;;;;5100040;28;20040;-36
2022/09/17 02:16:51;;;;;;;5.32;0.60;;;10.70;99.90;;;;;;5091151;28;20051;-36
2022/09/17 02:19:27;;;;;;;6.57;0.65;;;10.70;99.90;;;;;;5103639;28;20031;-36
2022/09/17 02:22:34;;;;;;;5.97;0.70;;;10.60;99.90;;;;;;5107775;28;20051;-36
2022/09/17 02:25:09;;;;;;;6.72;0.70;;;10.60;99.90;;;;;;5102239;28;20189;-36
2022/09/17 02:28:24;;;;;;;7.13;0.60;;;10.60;99.90;;;;;;5101096;28;20067;-35
2022/09/17 02:30:50;;;;;;;6.50;1.10;;;10.60;99.90;;;;;;4984005;28;20042;-36
2022/09/17 02:33:19;;;;;;;3.28;0.20;;;10.60;99.90;;;;;;4996414;28;20092;-36
2022/09/17 02:35:46;;;;;;;4.85;0.47;;;10.60;99.90;;;;;;5049904;28;20064;-35
2022/09/17 02:38:12;;;;;;;3.75;0.55;;;10.70;99.90;;;;;;5094575;28;20044;-35
2022/09/17 02:40:46;;;;;;;3.97;0.95;;;10.70;99.90;;;;;;5099114;28;20051;-35
2022/09/17 02:43:48;;;;;;;3.58;0.45;;;10.70;99.90;;;;;;5097159;28;20481;-36
2022/09/17 02:46:42;;;;;;;7.43;0.60;;;10.70;99.90;;;;;;5074632;28;20492;-36
2022/09/17 02:49:37;;;;;;;5.82;0.47;;;10.70;99.90;;;;;;5090045;28;20043;-36
2022/09/17 02:52:20;;;;;;;4.60;0.50;;;10.70;99.90;;;;;;5096916;28;20149;-36
2022/09/17 02:55:01;;;;;;;7.88;0.55;;;10.70;99.90;;;;;;5078696;28;20497;-35
2022/09/17 02:57:41;;;;;;;1.90;0.30;;;10.60;99.90;;;;;;5094622;28;20515;-36
2022/09/17 03:00:17;;;;;;;2.08;0.25;;;10.50;99.90;;;;;;5097589;28;20047;-35
2022/09/17 03:02:46;;;;;;;5.97;0.82;;;10.50;99.90;;;;;;5096369;28;20040;-36
2022/09/17 03:05:12;;;;;;;9.77;1.80;;;10.50;99.90;;;;;;5070604;28;20532;-36
2022/09/17 03:07:39;;;;;;;8.23;0.85;;;10.50;99.90;;;;;;5094707;28;20520;-34
2022/09/17 03:10:05;;;;;;;6.22;0.60;;;10.50;99.90;;;;;;5102811;28;20042;-36
2022/09/17 03:12:31;;;;;;;12.77;0.98;;;10.50;99.90;;;;;;5097164;28;20036;-35
2022/09/17 03:14:57;;;;;;;4.57;0.68;;;10.50;99.90;;;;;;5104320;28;20111;-36
2022/09/17 03:17:22;;;;;;;5.57;0.52;;;10.60;99.90;;;;;;5103563;28;20075;-35
2022/09/17 03:19:48;;;;;;;4.65;0.80;;;10.60;99.90;;;;;;5107822;28;20531;-36
2022/09/17 03:22:14;;;;;;;5.43;0.38;;;10.70;99.90;;;;;;5105809;28;20449;-35
2022/09/17 03:24:39;;;;;;;6.22;0.63;;;10.70;99.90;;;;;;5102649;28;20055;-36
2022/09/17 03:27:05;;;;;;;6.13;1.15;;;10.70;99.90;;;;;;5103307;28;20024;-39
2022/09/17 03:29:31;;;;;;;6.22;0.68;;;10.70;99.90;;;;;;5099636;28;20081;-35
2022/09/17 03:31:56;;;;;;;7.38;0.80;;;10.60;99.90;;;;;;5100562;28;20074;-36
2022/09/17 03:34:22;;;;;;;7.10;0.90;;;10.60;99.90;;;;;;5101983;27;20036;-36
2022/09/17 03:36:48;;;;;;;10.70;1.58;;;10.50;99.90;;;;;;5104043;28;20484;-35
2022/09/17 03:39:14;;;;;;;3.47;0.30;;;10.40;99.90;;;;;;5101436;28;20052;-37
2022/09/17 03:41:39;;;;;;;4.55;0.77;;;10.40;99.90;;;;;;5107740;28;20044;-37
2022/09/17 03:44:05;;;;;;;5.75;0.98;;;10.30;99.90;;;;;;5103518;28;20493;-36
2022/09/17 03:46:31;;;;;;;4.97;0.50;;;10.30;99.90;;;;;;5099634;28;20036;-35
2022/09/17 03:48:57;;;;;;;9.38;1.50;;;10.30;99.90;;;;;;5100644;28;20140;-36
2022/09/17 03:51:22;;;;;;;5.55;0.60;;;10.30;99.90;;;;;;5096014;28;20040;-35
2022/09/17 03:53:48;;;;;;;6.00;1.50;;;10.30;99.90;;;;;;5104499;28;20046;-36
2022/09/17 03:56:14;;;;;;;5.13;0.60;;;10.30;99.90;;;;;;5096322;27;20204;-36
2022/09/17 03:58:39;;;;;;;5.03;0.40;;;10.30;99.90;;;;;;5100751;28;20051;-35
2022/09/17 04:01:05;;;;;;;16.15;2.30;;;10.30;99.90;;;;;;5109515;28;20055;-36
2022/09/17 04:03:31;;;;;;;5.72;1.15;;;10.30;99.90;;;;;;5095163;28;20051;-48
2022/09/17 04:05:57;;;;;;;5.60;0.80;;;10.30;99.90;;;;;;5093215;28;20024;-35
2022/09/17 04:08:23;;;;;;;8.18;0.98;;;10.20;99.90;;;;;;5101851;28;20043;-35
2022/09/17 04:10:50;;;;;;;10.57;0.80;;;10.20;99.90;;;;;;5106927;28;20485;-35
2022/09/17 04:13:17;;;;;;;5.78;0.70;;;10.10;99.90;;;;;;5099167;28;20119;-36
2022/09/17 04:15:44;;;;;;;6.55;0.90;;;10.10;99.90;;;;;;5103179;28;20114;-35
2022/09/17 04:18:10;;;;;;;8.07;0.75;;;10.20;99.90;;;;;;5111367;28;20039;-35
2022/09/17 04:20:36;;;;;;;7.45;0.70;;;10.10;99.90;;;;;;5102093;28;20042;-35
2022/09/17 04:23:03;;;;;;;6.88;1.23;;;10.10;99.90;;;;;;5101734;28;20044;-35
2022/09/17 04:25:29;;;;;;;11.15;1.42;;;10.10;99.90;;;;;;5106859;28;20047;-37
2022/09/17 04:27:55;;;;;;;7.13;1.10;;;10.10;99.90;;;;;;5103901;28;20067;-36
2022/09/17 04:30:21;;;;;;;6.90;0.50;;;10.10;99.90;;;;;;5097406;28;20118;-36
2022/09/17 04:32:47;;;;;;;5.85;0.55;;;10.10;99.90;;;;;;5096072;28;20036;-35
2022/09/17 04:35:13;;;;;;;7.30;0.80;;;10.10;99.90;;;;;;5095911;28;20039;-36
2022/09/17 04:37:39;;;;;;;10.75;0.77;;;10.10;99.90;;;;;;5102512;28;20035;-36
2022/09/17 04:40:05;;;;;;;5.93;1.23;;;10.10;99.90;;;;;;5099867;28;20040;-36
2022/09/17 04:42:31;;;;;;;10.38;1.02;;;10.20;99.90;;;;;;5094025;28;20028;-36
2022/09/17 04:44:57;;;;;;;9.25;0.65;;;10.20;99.90;;;;;;5100570;27;20039;-35
2022/09/17 04:47:24;;;;;;;6.38;0.93;;;10.20;99.90;;;;;;5097454;28;20055;-36
2022/09/17 04:49:49;;;;;;;5.65;0.60;;;10.20;99.90;;;;;;5097939;28;20028;-36
2022/09/17 04:52:15;;;;;;;9.18;1.13;;;10.20;99.90;;;;;;5103710;28;20234;-35
2022/09/17 04:54:41;;;;;;;9.80;0.75;;;10.20;99.90;;;;;;5099592;28;20065;-36
2022/09/17 04:57:06;;;;;;;7.20;0.93;;;10.20;99.90;;;;;;5102798;28;20550;-35
2022/09/17 04:59:32;;;;;;;4.78;0.95;;;10.20;99.90;;;;;;5081029;28;20101;-36
2022/09/17 05:01:57;;;;;;;7.80;0.60;;;10.20;99.90;;;;;;5096475;28;20464;-36
2022/09/17 05:04:23;;;;;;;5.18;0.85;;;10.10;99.90;;;;;;5099664;28;20601;-36
2022/09/17 05:06:49;;;;;;;11.00;1.35;;;10.10;99.90;;;;;;5106947;28;20069;-36
2022/09/17 05:09:15;;;;;;;7.35;0.50;;;10.10;99.90;;;;;;5100036;28;20368;-36
2022/09/17 05:11:40;;;;;;;8.48;0.75;;;10.00;99.90;;;;;;5098462;28;20035;-35
2022/09/17 05:14:06;;;;;;;8.95;0.82;;;10.00;99.90;;;;;;5095317;28;20047;-35
2022/09/17 05:16:32;;;;;;;7.70;0.77;;;10.10;99.90;;;;;;5095087;28;20088;-36
2022/09/17 05:18:58;;;;;;;7.75;0.93;;;10.10;99.90;;;;;;5100748;28;20288;-35
2022/09/17 05:21:24;;;;;;;20.05;1.92;;;10.10;99.90;;;;;;5096792;28;20120;-36
2022/09/17 05:23:50;;;;;;;8.30;0.90;;;10.00;99.90;;;;;;5105762;28;20134;-36
2022/09/17 05:26:15;;;;;;;6.82;0.70;;;10.00;99.90;;;;;;5094358;28;20489;-34
2022/09/17 05:28:41;;;;;;;5.68;0.40;;;10.00;99.90;;;;;;5097917;28;20215;-36
2022/09/17 05:31:07;;;;;;;9.30;0.50;;;9.90;99.90;;;;;;5093674;28;20085;-35
2022/09/17 05:33:33;;;;;;;4.10;0.35;;;9.90;99.90;;;;;;5094811;28;20047;-36
2022/09/17 05:35:59;;;;;;;5.38;0.40;;;9.90;99.90;;;;;;5098610;28;20122;-36
2022/09/17 05:38:24;;;;;;;5.07;0.45;;;9.90;99.90;;;;;;5098275;28;20039;-35
2022/09/17 05:40:51;;;;;;;8.13;0.57;;;9.90;99.90;;;;;;5096538;28;20424;-36
2022/09/17 05:43:17;;;;;;;4.70;0.68;;;9.80;99.90;;;;;;5103679;28;20416;-36
2022/09/17 05:45:42;;;;;;;4.88;0.40;;;9.80;99.90;;;;;;5094842;28;20039;-36
2022/09/17 05:48:13;;;;;;;7.57;0.65;;;9.80;99.90;;;;;;5089477;28;20036;-35
2022/09/17 05:50:39;;;;;;;6.05;0.40;;;9.90;99.90;;;;;;5081793;28;20054;-36
2022/09/17 05:53:12;;;;;;;5.38;0.60;;;9.90;99.90;;;;;;5076938;28;20035;-36
2022/09/17 05:55:38;;;;;;;5.00;0.55;;;9.90;99.90;;;;;;5091022;28;20028;-36
2022/09/17 05:58:14;;;;;;;4.53;0.93;;;10.00;99.90;;;;;;5093839;28;20039;-36
2022/09/17 06:00:41;;;;;;;4.07;0.47;;;10.00;99.90;;;;;;5098116;27;20035;-36
2022/09/17 06:03:10;;;;;;;6.65;0.60;;;10.10;99.90;;;;;;5091385;28;20047;-35
2022/09/17 06:05:36;;;;;;;4.15;0.60;;;10.20;99.90;;;;;;5095739;28;20071;-35
2022/09/17 06:08:02;;;;;;;4.50;0.43;;;10.30;99.90;;;;;;5094023;28;20055;-37
2022/09/17 06:10:28;;;;;;;3.72;0.47;;;10.30;99.90;;;;;;5092026;28;20040;-36
2022/09/17 06:12:58;;;;;;;3.15;0.38;;;10.40;99.90;;;;;;5093608;28;20028;-37
2022/09/17 06:15:25;;;;;;;4.60;0.55;;;10.40;99.90;;;;;;5096443;28;20089;-37
2022/09/17 06:17:51;;;;;;;7.55;0.55;;;10.50;99.90;;;;;;5085102;28;20046;-37
2022/09/17 06:20:18;;;;;;;4.95;0.30;;;10.50;99.90;;;;;;5102827;28;20039;-38
2022/09/17 06:22:43;;;;;;;2.90;0.45;;;10.60;99.90;;;;;;5095540;28;20044;-36
2022/09/17 06:25:09;;;;;;;6.03;0.70;;;10.60;99.90;;;;;;5060508;28;20097;-38
2022/09/17 06:27:35;;;;;;;5.85;0.50;;;10.70;99.90;;;;;;5097449;28;20111;-36
2022/09/17 06:30:01;;;;;;;8.05;0.82;;;10.80;99.90;;;;;;5100079;28;20063;-37
2022/09/17 06:32:27;;;;;;;4.05;0.40;;;10.80;99.90;;;;;;5102606;28;20040;-37
2022/09/17 06:34:54;;;;;;;4.20;0.45;;;10.90;99.90;;;;;;5095436;28;20039;-37
2022/09/17 06:37:26;;;;;;;4.53;0.47;;;10.90;99.90;;;;;;5094890;28;20048;-38
2022/09/17 06:39:51;;;;;;;3.88;0.77;;;10.90;99.90;;;;;;5102135;28;20043;-37
2022/09/17 06:42:17;;;;;;;4.82;0.45;;;11.00;99.90;;;;;;5076161;28;20055;-37
2022/09/17 06:44:43;;;;;;;4.43;0.30;;;11.00;99.90;;;;;;5090908;28;20035;-36
2022/09/17 06:47:08;;;;;;;5.05;0.30;;;11.10;99.90;;;;;;5093830;28;20044;-37
2022/09/17 06:49:34;;;;;;;4.72;0.80;;;11.00;99.90;;;;;;5091821;28;20024;-38
2022/09/17 06:52:00;;;;;;;2.70;0.40;;;11.10;99.90;;;;;;5095875;28;20086;-37
2022/09/17 06:54:26;;;;;;;4.25;0.65;;;11.10;99.90;;;;;;5102919;28;20040;-37
2022/09/17 06:56:51;;;;;;;3.85;0.40;;;11.20;99.90;;;;;;5097037;28;20063;-37
2022/09/17 06:59:17;;;;;;;3.35;0.50;;;11.20;99.90;;;;;;5093061;28;20044;-37
2022/09/17 07:01:43;;;;;;;6.65;1.33;;;11.40;99.90;;;;;;5094822;28;20051;-36
2022/09/17 07:04:09;;;;;;;4.32;0.40;;;11.50;99.90;;;;;;5100058;28;20408;-38
2022/09/17 07:06:34;;;;;;;5.50;0.57;;;11.60;99.90;;;;;;5101949;28;20036;-38
2022/09/17 07:09:00;;;;;;;6.22;0.60;;;11.70;99.90;;;;;;5095695;28;20032;-37
2022/09/17 07:11:28;;;;;;;6.85;1.48;;;11.80;99.90;;;;;;5092204;28;20036;-38
2022/09/17 07:13:55;;;;;;;3.63;0.30;;;11.80;99.90;;;;;;5092270;28;20531;-37
2022/09/17 07:16:20;;;;;;;3.83;0.30;;;11.70;99.90;;;;;;5093134;28;20565;-39
2022/09/17 07:18:46;;;;;;;3.90;0.30;;;11.70;99.90;;;;;;5091238;28;20044;-36
2022/09/17 07:21:12;;;;;;;6.78;0.35;;;11.80;99.90;;;;;;5091793;28;20489;-37
2022/09/17 07:23:37;;;;;;;3.85;0.60;;;11.90;99.90;;;;;;5091152;28;20072;-38
2022/09/17 07:26:11;;;;;;;5.53;0.32;;;12.00;99.90;;;;;;5092161;28;20028;-37
2022/09/17 07:28:38;;;;;;;2.72;0.43;;;12.10;99.90;;;;;;5091329;28;20162;-38
2022/09/17 07:31:05;;;;;;;2.30;0.30;;;12.20;99.90;;;;;;5095337;28;20390;-38
2022/09/17 07:33:31;;;;;;;2.53;0.30;;;12.30;99.90;;;;;;5095128;28;20044;-37
2022/09/17 07:35:59;;;;;;;3.25;0.20;;;12.60;99.90;;;;;;5090324;28;20051;-37
2022/09/17 07:38:26;;;;;;;2.33;0.30;;;12.80;99.90;;;;;;5090992;28;20055;-38
2022/09/17 07:41:03;;;;;;;3.35;0.20;;;12.80;99.90;;;;;;5095141;28;20054;-38
2022/09/17 07:43:34;;;;;;;2.85;0.20;;;12.80;99.90;;;;;;5082180;28;20042;-40
2022/09/17 07:46:02;;;;;;;2.47;0.30;;;12.70;99.90;;;;;;5094201;28;20051;-38
2022/09/17 07:48:28;;;;;;;2.25;0.30;;;12.70;99.90;;;;;;5077571;28;20524;-37
2022/09/17 07:50:55;;;;;;;2.15;0.20;;;12.60;99.90;;;;;;5096090;28;20040;-38
2022/09/17 07:53:21;;;;;;;2.22;0.30;;;12.60;99.90;;;;;;5094569;28;20447;-37
2022/09/17 07:55:58;;;;;;;9.40;0.57;;;12.60;99.90;;;;;;5074959;28;20055;-37
2022/09/17 07:58:29;;;;;;;3.58;0.40;;;12.60;99.90;;;;;;5099155;28;20039;-36
2022/09/17 08:01:08;;;;;;;3.53;0.40;;;12.70;99.90;;;;;;5098456;27;20077;-36
2022/09/17 08:03:35;;;;;;;5.43;0.50;;;12.80;99.90;;;;;;5102467;28;20039;-37
2022/09/17 08:06:12;;;;;;;4.72;0.40;;;12.80;99.90;;;;;;5105219;28;20039;-38
2022/09/17 08:08:38;;;;;;;5.50;0.40;;;12.80;99.90;;;;;;5100059;28;20078;-38
2022/09/17 08:11:08;;;;;;;4.95;0.52;;;12.70;99.90;;;;;;5092985;28;20036;-38
2022/09/17 08:13:34;;;;;;;4.18;0.52;;;12.60;99.90;;;;;;5099434;28;20043;-37
2022/09/17 08:16:04;;;;;;;3.05;0.30;;;12.30;99.90;;;;;;5095182;28;20032;-36
2022/09/17 08:18:30;;;;;;;3.55;0.30;;;12.00;99.90;;;;;;5092064;28;20043;-37
2022/09/17 08:20:58;;;;;;;5.05;0.30;;;11.80;99.90;;;;;;5094905;28;20481;-37
2022/09/17 08:23:25;;;;;;;4.63;0.38;;;11.70;99.90;;;;;;5095146;28;20052;-37
2022/09/17 08:25:55;;;;;;;3.33;0.40;;;11.80;99.90;;;;;;5096988;28;20039;-37
2022/09/17 08:28:22;;;;;;;4.93;0.47;;;12.00;99.90;;;;;;5074672;28;20493;-37
2022/09/17 08:30:49;;;;;;;3.22;0.40;;;12.10;99.90;;;;;;5092372;28;20027;-38
2022/09/17 08:33:15;;;;;;;4.65;0.45;;;12.30;99.90;;;;;;5091635;28;20539;-37
2022/09/17 08:35:41;;;;;;;3.70;0.30;;;12.40;99.90;;;;;;5090758;28;20042;-37
2022/09/17 08:38:07;;;;;;;5.05;0.55;;;12.60;99.90;;;;;;5093548;28;20040;-37
2022/09/17 08:40:44;;;;;;;4.32;0.30;;;12.80;99.90;;;;;;5098577;28;20040;-37
2022/09/17 08:43:16;;;;;;;7.63;0.60;;;12.90;99.90;;;;;;5092832;28;20119;-36
2022/09/17 08:45:42;;;;;;;3.60;0.47;;;13.00;99.90;;;;;;5101595;28;20038;-37
2022/09/17 08:48:13;;;;;;;6.75;0.55;;;13.00;99.90;;;;;;5078257;28;20040;-37
2022/09/17 08:50:41;;;;;;;4.55;0.57;;;13.00;99.90;;;;;;5097124;28;20114;-37
2022/09/17 08:53:37;;;;;;;3.70;0.50;;;13.00;99.90;;;;;;5096991;28;20032;-37
2022/09/17 08:56:12;;;;;;;4.15;0.40;;;12.90;99.90;;;;;;5094448;28;20496;-36
2022/09/17 08:58:50;;;;;;;6.85;0.95;;;12.90;99.90;;;;;;5093558;28;20233;-38
2022/09/17 09:01:22;;;;;;;2.13;0.30;;;12.90;99.90;;;;;;5096667;28;20409;-38
2022/09/17 09:04:18;;;;;;;1.77;0.28;;;12.90;99.90;;;;;;5092645;28;20043;-37
2022/09/17 09:07:22;;;;;;;3.58;0.20;;;12.90;99.90;;;;;;5098590;28;20095;-37
2022/09/17 09:10:09;;;;;;;2.65;0.22;;;12.80;99.90;;;;;;5099902;27;20130;-36
2022/09/17 09:12:36;;;;;;;2.42;0.28;;;12.80;99.90;;;;;;5101384;28;20028;-37
2022/09/17 09:15:06;;;;;;;1.15;0.20;;;12.90;99.90;;;;;;5092176;28;20389;-38
2022/09/17 09:17:43;;;;;;;1.60;0.13;;;13.00;99.90;;;;;;5099379;28;20401;-37
2022/09/17 09:20:25;;;;;;;4.07;0.40;;;13.30;99.90;;;;;;5101955;28;20043;-37
2022/09/17 09:22:51;;;;;;;3.15;0.20;;;13.20;99.90;;;;;;5087424;28;20067;-37
2022/09/17 09:25:17;;;;;;;3.00;0.30;;;13.10;99.90;;;;;;5100952;28;20054;-37
2022/09/17 09:27:51;;;;;;;2.08;0.30;;;13.00;99.90;;;;;;5097384;28;20400;-36
2022/09/17 09:30:22;;;;;;;2.63;0.17;;;12.90;99.90;;;;;;5099980;28;20050;-37
2022/09/17 09:33:05;;;;;;;3.97;0.20;;;12.70;99.90;;;;;;5106670;28;20446;-36
2022/09/17 09:35:35;;;;;;;1.60;0.20;;;12.50;99.90;;;;;;5097154;28;20047;-38
2022/09/17 09:38:23;;;;;;;3.53;0.30;;;12.30;99.90;;;;;;5066608;28;20397;-38
2022/09/17 09:41:14;;;;;;;2.22;0.30;;;12.30;99.90;;;;;;5105634;27;20035;-37
2022/09/17 09:43:45;;;;;;;2.25;0.40;;;12.50;99.90;;;;;;5092415;27;20080;-39
2022/09/17 09:46:49;;;;;;;2.78;0.30;;;12.60;99.90;;;;;;5095446;27;20048;-39
2022/09/17 09:49:40;;;;;;;1.77;0.20;;;12.80;99.90;;;;;;4996415;28;20119;-37
2022/09/17 09:52:31;;;;;;;2.38;0.35;;;12.90;99.90;;;;;;5002588;28;20065;-38
2022/09/17 09:55:27;;;;;;;5.18;0.30;;;13.10;99.90;;;;;;5076233;28;20176;-38
2022/09/17 09:58:02;;;;;;;6.15;0.50;;;13.20;99.90;;;;;;5100335;28;20046;-40
2022/09/17 10:00:35;;;;;;;3.40;0.32;;;13.40;99.90;;;;;;5099767;28;20538;-36
2022/09/17 10:03:16;;;;;;;5.93;0.82;;;13.50;99.90;;;;;;5095939;28;20032;-38
2022/09/17 10:05:56;;;;;;;5.55;0.50;;;13.70;99.90;;;;;;5087826;27;20040;-37
2022/09/17 10:08:23;;;;;;;3.25;0.30;;;13.80;99.90;;;;;;5093821;28;20218;-41
2022/09/17 10:11:00;;;;;;;6.90;0.47;;;13.90;99.90;;;;;;5095401;28;20128;-37
2022/09/17 10:13:28;;;;;;;4.50;0.30;;;14.10;99.90;;;;;;5092135;28;20039;-37
2022/09/17 10:15:54;;;;;;;3.33;0.63;;;14.20;99.90;;;;;;5088585;28;20044;-36
2022/09/17 10:18:23;;;;;;;5.25;0.40;;;14.30;99.90;;;;;;5093286;28;20076;-37
2022/09/17 10:20:52;;;;;;;2.78;0.38;;;14.50;99.90;;;;;;5091212;28;20408;-37
2022/09/17 10:23:20;;;;;;;4.07;0.63;;;;;;;;;;5087382;28;20082;-37
2022/09/17 10:25:46;;;;;;;7.57;0.80;;;14.70;99.90;;;;;;5091062;28;20058;-37
2022/09/17 10:28:32;;;;;;;2.75;0.43;;;14.90;99.90;;;;;;5090970;28;20035;-37
2022/09/17 10:31:03;;;;;;;5.68;0.90;;;15.10;99.90;;;;;;5089799;28;20040;-37
2022/09/17 10:33:32;;;;;;;5.22;0.40;;;15.20;99.90;;;;;;5070532;28;20052;-37
2022/09/17 10:36:05;;;;;;;5.63;0.50;;;15.00;99.90;;;;;;5094554;28;20039;-39
2022/09/17 10:38:35;;;;;;;2.85;0.20;;;14.70;99.90;;;;;;5092037;28;20040;-38
2022/09/17 10:41:16;;;;;;;4.70;0.40;;;14.30;99.90;;;;;;5098863;28;20031;-37
2022/09/17 10:43:43;;;;;;;3.22;0.30;;;14.10;99.90;;;;;;5090603;28;20093;-38
2022/09/17 10:46:12;;;;;;;2.80;0.32;;;13.90;99.90;;;;;;5077958;28;20135;-39
2022/09/17 10:48:44;;;;;;;4.60;0.30;;;13.90;99.90;;;;;;5093208;28;20039;-37
2022/09/17 10:51:18;;;;;;;2.85;0.38;;;14.00;99.90;;;;;;5094024;28;20044;-38
2022/09/17 10:54:16;;;;;;;4.30;0.95;;;14.10;99.90;;;;;;5092358;28;20404;-36
2022/09/17 10:56:48;;;;;;;2.05;0.30;;;14.20;99.90;;;;;;5089111;28;20078;-36
2022/09/17 10:59:41;;;;;;;4.53;0.57;;;14.40;99.90;;;;;;5093770;28;20039;-36
2022/09/17 11:02:19;;;;;;;5.15;0.45;;;14.80;99.90;;;;;;5097428;28;20036;-36
2022/09/17 11:05:02;;;;;;;4.22;0.40;;;15.10;99.90;;;;;;5093247;28;20044;-37
2022/09/17 11:07:38;;;;;;;3.95;1.05;;;15.20;98.90;;;;;;5096488;28;20075;-37
2022/09/17 11:10:21;;;;;;;2.35;0.30;;;15.00;99.70;;;;;;5100683;28;20124;-36
2022/09/17 11:12:59;;;;;;;5.15;0.30;;;14.60;98.90;;;;;;5097002;28;20071;-37
2022/09/17 11:16:03;;;;;;;2.50;0.20;;;14.20;99.40;;;;;;5080680;28;20050;-37
2022/09/17 11:18:58;;;;;;;2.95;0.47;;;13.80;99.90;;;;;;5095850;28;20073;-35
2022/09/17 11:21:41;;;;;;;2.47;0.30;;;13.50;99.90;;;;;;5097215;28;20066;-36
2022/09/17 11:24:23;;;;;;;6.95;0.30;;;13.30;99.90;;;;;;5099337;28;20089;-36
2022/09/17 11:27:16;;;;;;;5.68;0.40;;;13.50;99.90;;;;;;5082100;28;20061;-37
2022/09/17 11:30:02;;;;;;;3.30;0.40;;;13.80;99.90;;;;;;5075561;28;20488;-36
2022/09/17 11:33:08;;;;;;;4.15;0.40;;;14.20;99.90;;;;;;5092473;28;20040;-36
2022/09/17 11:35:44;;;;;;;2.80;0.45;;;14.50;99.90;;;;;;5103513;28;20040;-36
2022/09/17 11:38:39;;;;;;;2.83;0.30;;;14.80;99.90;;;;;;5101253;28;20039;-36
2022/09/17 11:41:13;;;;;;;3.30;0.30;;;15.10;97.90;;;;;;5101195;27;20475;-39
2022/09/17 11:43:46;;;;;;;1.70;0.15;;;15.20;95.30;;;;;;5115275;27;20556;-37
2022/09/17 11:46:28;;;;;;;0.93;0.10;;;15.20;93.60;;;;;;5102729;28;20027;-37
2022/09/17 11:49:15;;;;;;;1.75;0.47;;;15.30;92.00;;;;;;5099905;28;20084;-37
2022/09/17 11:52:04;;;;;;;2.75;0.20;;;15.50;90.70;;;;;;5097471;28;20045;-38
2022/09/17 11:54:36;;;;;;;2.90;0.30;;;15.80;89.30;;;;;;5091992;28;20036;-38
2022/09/17 11:57:16;;;;;;;6.70;0.60;;;15.80;88.10;;;;;;5100764;28;20508;-39
2022/09/17 11:59:58;;;;;;;3.88;0.30;;;15.90;88.00;;;;;;5099566;28;20039;-38
2022/09/17 12:02:45;;;;;;;3.08;0.50;;;16.00;87.60;;;;;;5098240;28;20048;-38
2022/09/17 12:05:19;;;;;;;4.50;0.80;;;16.20;85.20;;;;;;5100148;28;20083;-38
2022/09/17 12:08:09;;;;;;;5.07;0.50;;;16.20;84.10;;;;;;5095304;28;20109;-38
2022/09/17 12:10:59;;;;;;;5.60;0.47;;;15.90;87.80;;;;;;5095938;28;20090;-40
2022/09/17 12:13:40;;;;;;;4.65;0.30;;;15.30;91.20;;;;;;5096757;28;20488;-38
2022/09/17 12:16:21;;;;;;;8.05;0.38;;;14.70;93.30;;;;;;5093913;28;20040;-38
2022/09/17 12:18:52;;;;;;;4.22;0.30;;;14.20;95.00;;;;;;5100155;28;20481;-37
2022/09/17 12:21:35;;;;;;;2.20;0.20;;;14.00;95.70;;;;;;5100329;28;20127;-38
2022/09/17 12:24:13;;;;;;;5.28;0.77;;;14.10;96.80;;;;;;5095790;28;20300;-38
2022/09/17 12:27:17;;;;;;;4.47;0.50;;;14.40;97.00;;;;;;5098088;28;20047;-38
2022/09/17 12:30:21;;;;;;;5.05;0.73;;;14.80;96.70;;;;;;5081545;28;20519;-37
2022/09/17 12:33:13;;;;;;;4.38;0.40;;;15.40;95.20;;;;;;5092061;28;20032;-38
2022/09/17 12:35:57;;;;;;;5.15;0.30;;;16.00;93.30;;;;;;5093700;28;20044;-36
2022/09/17 12:38:29;;;;;;;8.98;0.68;;;16.40;91.70;;;;;;5079396;28;20100;-36
2022/09/17 12:41:07;;;;;;;6.30;0.50;;;16.90;89.80;;;;;;5086412;28;20046;-36
2022/09/17 12:43:52;;;;;;;3.05;0.47;;;17.20;85.30;;;;;;5097809;28;20539;-37
2022/09/17 12:47:00;;;;;;;6.97;1.30;;;17.80;84.20;;;;;;5096327;28;20047;-37
2022/09/17 12:49:56;;;;;;;6.53;0.80;;;18.40;79.10;;;;;;5095499;28;20533;-38
2022/09/17 12:52:46;;;;;;;7.82;0.73;;;18.90;75.00;;;;;;5105547;28;20044;-37
2022/09/17 12:55:43;;;;;;;5.43;0.50;;;18.40;72.00;;;;;;5093335;28;20036;-39
2022/09/17 12:58:56;;;;;;;6.93;0.75;;;17.60;68.00;;;;;;5086438;28;20052;-39
2022/09/17 13:01:57;;;;;;;;;;;16.90;64.20;;;;;;5074641;28;20040;-39
2022/09/17 13:04:32;;;;;;;10.15;1.08;;;17.10;68.70;;;;;;5030125;28;19947;-39
2022/09/17 13:07:20;;;;;;;5.20;0.70;;;;;;;;;;5091687;28;20047;-36
2022/09/17 13:10:23;;;;;;;4.93;0.60;;;18.80;59.10;;;;;;5095066;28;20043;-38
2022/09/17 13:13:22;;;;;;;11.57;1.13;;;19.20;57.70;;;;;;5095457;28;20062;-40
2022/09/17 13:16:07;;;;;;;5.57;0.90;;;19.50;55.70;;;;;;5100813;28;20036;-39
2022/09/17 13:18:52;;;;;;;8.90;0.80;;;19.60;56.80;;;;;;5094671;27;20036;-39
2022/09/17 13:21:42;;;;;;;5.80;0.68;;;19.80;54.20;;;;;;5084435;28;20063;-39